createdAt,value
2016-01-27T08:14:48.111Z,15320
2016-01-27T08:15:04.048Z,15460
2016-01-27T08:15:23.095Z,15540
2016-01-27T08:15:39.908Z,15680
2016-01-27T08:15:55.457Z,15864
2016-01-27T08:16:14.175Z,15972
2016-01-27T08:17:04.756Z,16144
2016-01-27T08:17:21.288Z,16192
2016-01-27T08:17:38.632Z,16312
2016-01-27T08:18:13.681Z,16608
2016-01-27T08:19:00.981Z,16208
2016-01-27T08:19:16.309Z,16280
2016-01-27T08:19:32.419Z,16264
2016-01-27T08:19:50.453Z,16268
2016-01-27T08:20:08.312Z,16272
2016-01-27T08:20:24.062Z,16224
2016-01-27T08:20:42.047Z,16208
2016-01-27T08:21:05.147Z,16244
2016-01-27T08:21:24.179Z,16272
2016-01-27T08:21:55.118Z,16376
2016-01-27T08:22:43.978Z,16148
2016-01-27T08:22:59.856Z,15860
2016-01-27T08:23:15.809Z,15956
2016-01-27T08:23:32.216Z,16144
2016-01-27T08:23:48.969Z,16144
2016-01-27T08:24:20.375Z,15912
2016-01-27T08:24:35.312Z,16380
2016-01-27T08:24:51.424Z,17184
2016-01-27T08:25:08.611Z,17280
2016-01-27T08:25:23.658Z,17216
2016-01-27T08:25:38.424Z,17280
2016-01-27T08:25:59.302Z,17472
2016-01-27T08:26:18.911Z,17248
2016-01-27T08:26:35.130Z,17440
2016-01-27T08:26:50.476Z,17728
2016-01-27T08:27:08.335Z,18016
2016-01-27T08:27:53.636Z,18144
2016-01-27T08:28:25.573Z,18464
2016-01-27T08:29:15.341Z,19200
2016-01-27T08:29:30.560Z,19232
2016-01-27T08:29:47.968Z,19360
2016-01-27T08:30:03.468Z,19488
2016-01-27T08:30:32.987Z,19072
2016-01-27T08:30:48.990Z,18848
2016-01-27T08:31:07.193Z,19040
2016-01-27T08:31:39.427Z,18912
2016-01-27T08:31:56.555Z,18816
2016-01-27T08:32:13.511Z,18592
2016-01-27T08:32:30.636Z,18400
2016-01-27T08:32:49.577Z,18336
2016-01-27T08:33:06.655Z,18176
2016-01-27T08:33:26.467Z,18336
2016-01-27T08:33:58.172Z,17504
2016-01-27T08:34:16.547Z,16736
2016-01-27T08:34:32.313Z,16588
2016-01-27T08:35:05.285Z,16788
2016-01-27T08:35:23.738Z,17440
2016-01-27T08:35:40.707Z,17728
2016-01-27T08:36:16.178Z,17792
2016-01-27T08:36:36.350Z,18144
2016-01-27T08:36:52.352Z,17888
2016-01-27T08:37:09.024Z,17536
2016-01-27T08:37:25.696Z,16856
2016-01-27T08:37:43.291Z,16408
2016-01-27T08:37:59.278Z,16132
2016-01-27T08:38:32.466Z,15388
2016-01-27T08:38:51.187Z,15172
2016-01-27T08:39:07.578Z,15044
2016-01-27T08:39:26.187Z,14924
2016-01-27T08:39:41.785Z,14840
2016-01-27T08:40:12.772Z,14724
2016-01-27T08:40:31.179Z,14660
2016-01-27T08:40:48.181Z,14620
2016-01-27T08:41:06.571Z,14580
2016-01-27T08:41:53.214Z,14500
2016-01-27T08:42:23.683Z,14496
2016-01-27T08:42:39.730Z,14500
2016-01-27T08:42:55.905Z,14516
2016-01-27T08:43:11.687Z,14536
2016-01-27T08:43:27.577Z,14580
2016-01-27T08:43:43.109Z,14624
2016-01-27T08:44:00.049Z,14676
2016-01-27T08:44:21.190Z,14752
2016-01-27T08:44:51.239Z,14864
2016-01-27T08:45:34.693Z,15056
2016-01-27T08:45:50.179Z,15128
2016-01-27T08:46:22.617Z,15308
2016-01-27T08:47:12.479Z,15580
2016-01-27T08:47:27.682Z,15664
2016-01-27T08:47:44.323Z,15740
2016-01-27T08:48:13.388Z,15828
2016-01-27T08:48:29.310Z,15884
2016-01-27T08:49:19.834Z,15992
2016-01-27T08:49:36.677Z,16008
2016-01-27T08:49:53.462Z,16024
2016-01-27T08:50:11.727Z,16060
2016-01-27T08:50:27.790Z,16088
2016-01-27T08:50:50.121Z,16140
2016-01-27T08:51:15.043Z,16200
2016-01-27T08:51:32.386Z,16252
2016-01-27T08:52:03.061Z,16368
2016-01-27T08:52:19.453Z,16408
2016-01-27T08:52:35.672Z,16472
2016-01-27T08:52:53.596Z,16444
2016-01-27T08:53:10.642Z,16544
2016-01-27T08:53:29.580Z,17044
2016-01-27T08:53:45.127Z,17320
2016-01-27T08:54:02.583Z,17556
2016-01-27T08:54:33.505Z,17984
2016-01-27T08:54:49.461Z,18144
2016-01-27T08:55:06.227Z,18240
2016-01-27T08:55:24.633Z,18368
2016-01-27T08:55:43.461Z,18496
2016-01-27T08:56:03.327Z,18624
2016-01-27T08:56:19.765Z,18688
2016-01-27T08:56:37.093Z,18752
2016-01-27T08:56:55.892Z,18880
2016-01-27T08:57:15.126Z,18976
2016-01-27T08:57:32.782Z,19040
2016-01-27T08:57:51.535Z,19136
2016-01-27T08:58:16.785Z,19168
2016-01-27T08:58:34.192Z,19232
2016-01-27T08:58:50.491Z,19136
2016-01-27T08:59:06.538Z,19328
2016-01-27T08:59:24.726Z,19392
2016-01-27T08:59:54.526Z,19488
2016-01-27T09:00:13.010Z,19552
2016-01-27T09:00:28.338Z,19680
2016-01-27T09:00:59.966Z,19776
2016-01-27T09:01:14.982Z,19776
2016-01-27T09:01:33.982Z,19712
2016-01-27T09:01:52.906Z,19648
2016-01-27T09:02:42.515Z,19712
2016-01-27T09:03:00.893Z,19744
2016-01-27T09:03:21.380Z,19744
2016-01-27T09:03:38.412Z,19776
2016-01-27T09:04:21.227Z,19872
2016-01-27T09:04:39.477Z,19936
2016-01-27T09:04:56.323Z,20000
2016-01-27T09:05:28.432Z,20096
2016-01-27T09:05:45.338Z,20160
2016-01-27T09:06:02.560Z,20192
2016-01-27T09:06:27.154Z,20320
2016-01-27T09:06:44.451Z,20416
2016-01-27T09:07:30.314Z,20736
2016-01-27T09:07:46.377Z,20832
2016-01-27T09:08:49.725Z,21312
2016-01-27T09:09:20.225Z,21280
2016-01-27T09:09:36.022Z,21792
2016-01-27T09:09:58.588Z,21760
2016-01-27T09:10:14.744Z,21536
2016-01-27T09:10:30.416Z,21632
2016-01-27T09:11:01.813Z,22048
2016-01-27T09:11:18.750Z,22112
2016-01-27T09:11:35.359Z,21952
2016-01-27T09:11:53.003Z,21760
2016-01-27T09:12:09.675Z,21536
2016-01-27T09:13:26.898Z,21696
2016-01-27T09:13:44.351Z,21696
2016-01-27T09:14:00.868Z,21792
2016-01-27T09:14:17.306Z,22144
2016-01-27T09:14:33.776Z,22688
2016-01-27T09:14:52.904Z,23616
2016-01-27T09:15:13.872Z,25536
2016-01-27T09:15:44.232Z,24672
2016-01-27T09:16:04.921Z,24672
2016-01-27T09:16:25.077Z,25984
2016-01-27T09:16:40.218Z,29312
2016-01-27T09:16:58.065Z,27872
2016-01-27T09:17:33.049Z,32064
2016-01-27T09:17:48.252Z,28800
2016-01-27T09:18:36.398Z,31584
2016-01-27T09:18:52.760Z,30176
2016-01-27T09:19:09.526Z,32384
2016-01-27T09:19:25.781Z,33440
2016-01-27T09:19:46.187Z,31936
2016-01-27T09:20:03.018Z,30976
2016-01-27T09:20:22.346Z,30112
2016-01-27T09:20:39.862Z,29472
2016-01-27T09:20:56.006Z,28384
2016-01-27T09:21:12.521Z,27168
2016-01-27T09:21:27.287Z,26336
2016-01-27T09:21:44.990Z,26048
2016-01-27T09:22:00.650Z,25632
2016-01-27T09:22:15.822Z,25344
2016-01-27T09:22:44.260Z,24608
2016-01-27T09:22:59.927Z,24096
2016-01-27T09:23:34.348Z,23456
2016-01-27T09:23:50.571Z,23520
2016-01-27T09:24:05.790Z,23712
2016-01-27T09:24:21.837Z,24000
2016-01-27T09:24:40.727Z,23968
2016-01-27T09:24:55.292Z,24160
2016-01-27T09:25:15.526Z,24512
2016-01-27T09:25:35.842Z,24352
2016-01-27T09:25:53.798Z,24096
2016-01-27T09:26:09.813Z,24096
2016-01-27T09:26:26.876Z,23936
2016-01-27T09:26:42.532Z,24640
2016-01-27T09:26:57.285Z,24864
2016-01-27T09:27:22.316Z,23808
2016-01-27T09:27:38.613Z,23232
2016-01-27T09:28:09.162Z,21760
2016-01-27T09:28:27.240Z,21152
2016-01-27T09:28:57.400Z,20512
2016-01-27T09:29:15.385Z,20320
2016-01-27T09:29:30.276Z,20096
2016-01-27T09:29:46.869Z,19776
2016-01-27T09:30:06.654Z,19424
2016-01-27T09:30:54.438Z,19008
2016-01-27T09:31:11.266Z,19040
2016-01-27T09:31:26.797Z,19104
2016-01-27T09:31:56.830Z,19360
2016-01-27T09:32:13.596Z,19712
2016-01-27T09:32:29.065Z,19872
2016-01-27T09:32:45.284Z,20480
2016-01-27T09:33:00.352Z,20928
2016-01-27T09:33:33.024Z,22112
2016-01-27T09:33:47.946Z,22240
2016-01-27T09:34:16.746Z,21664
2016-01-27T09:34:32.464Z,21280
2016-01-27T09:34:52.138Z,20480
2016-01-27T09:35:08.466Z,19552
2016-01-27T09:35:25.185Z,18848
2016-01-27T09:35:39.935Z,18208
2016-01-27T09:35:56.501Z,17760
2016-01-27T09:36:17.360Z,17148
2016-01-27T09:36:33.548Z,16768
2016-01-27T09:36:58.269Z,16568
2016-01-27T09:37:13.144Z,16496
2016-01-27T09:37:28.425Z,16460
2016-01-27T09:37:47.800Z,16448
2016-01-27T09:38:33.492Z,16508
2016-01-27T09:39:02.947Z,16696
2016-01-27T09:39:18.385Z,16868
2016-01-27T09:39:32.869Z,17044
2016-01-27T09:39:49.541Z,17276
2016-01-27T09:40:03.919Z,17512
2016-01-27T09:40:57.327Z,18688
2016-01-27T09:41:13.890Z,19040
2016-01-27T09:41:29.327Z,19392
2016-01-27T09:41:44.827Z,19680
2016-01-27T09:42:17.410Z,20288
2016-01-27T09:42:34.020Z,20640
2016-01-27T09:43:03.710Z,21280
2016-01-27T09:43:19.788Z,21728
2016-01-27T09:43:39.616Z,22208
2016-01-27T09:44:09.043Z,22880
2016-01-27T09:44:41.168Z,23616
2016-01-27T09:45:01.906Z,23936
2016-01-27T09:45:17.594Z,24192
2016-01-27T09:45:47.781Z,24800
2016-01-27T09:46:50.865Z,25792
2016-01-27T09:47:05.411Z,26048
2016-01-27T09:47:22.661Z,26368
2016-01-27T09:47:38.134Z,26624
2016-01-27T09:48:08.355Z,26976
2016-01-27T09:48:25.261Z,27136
2016-01-27T09:48:41.480Z,27296
2016-01-27T09:49:00.233Z,27488
2016-01-27T09:49:22.295Z,27712
2016-01-27T09:49:52.111Z,27968
2016-01-27T09:50:10.658Z,28096
2016-01-27T09:50:30.205Z,28320
2016-01-27T09:51:00.645Z,28480
2016-01-27T09:51:17.879Z,28576
2016-01-27T09:51:36.364Z,28640
2016-01-27T09:51:52.085Z,28736
2016-01-27T09:52:08.022Z,28736
2016-01-27T09:52:37.788Z,28768
2016-01-27T09:52:55.166Z,28672
2016-01-27T09:53:10.775Z,28672
2016-01-27T09:53:31.759Z,28576
2016-01-27T09:53:47.072Z,28512
2016-01-27T09:54:02.208Z,28480
2016-01-27T09:54:20.567Z,28384
2016-01-27T09:54:34.489Z,28384
2016-01-27T09:54:51.476Z,28320
2016-01-27T09:55:05.745Z,28256
2016-01-27T09:55:19.682Z,28128
2016-01-27T09:55:33.901Z,28000
2016-01-27T09:55:47.995Z,27968
2016-01-27T09:56:02.951Z,27968
2016-01-27T09:56:31.998Z,27872
2016-01-27T09:56:45.998Z,27808
2016-01-27T09:57:14.267Z,27712
2016-01-27T09:57:28.532Z,27488
2016-01-27T09:57:42.298Z,27328
2016-01-27T09:57:56.503Z,27168
2016-01-27T09:58:10.378Z,27008
2016-01-27T09:58:24.206Z,26848
2016-01-27T09:58:38.347Z,26720
2016-01-27T09:58:51.990Z,26656
2016-01-27T09:59:05.881Z,26432
2016-01-27T09:59:19.693Z,26336
2016-01-27T09:59:34.147Z,26368
2016-01-27T09:59:48.209Z,26176
2016-01-27T10:00:02.820Z,26048
2016-01-27T10:00:17.180Z,26016
2016-01-27T10:00:31.166Z,25856
2016-01-27T10:00:45.026Z,25824
2016-01-27T10:00:59.280Z,25952
2016-01-27T10:01:13.108Z,26304
2016-01-27T10:01:26.780Z,26464
2016-01-27T10:01:54.953Z,27136
2016-01-27T10:02:08.844Z,27456
2016-01-27T10:02:31.219Z,30720
2016-01-27T10:02:45.907Z,28768
2016-01-27T10:02:59.815Z,28032
2016-01-27T10:03:13.893Z,29280
2016-01-27T10:03:28.159Z,32480
2016-01-27T10:03:56.083Z,29856
2016-01-27T10:04:10.788Z,28576
2016-01-27T10:04:24.819Z,28800
2016-01-27T10:04:39.069Z,27616
2016-01-27T10:04:53.541Z,26208
2016-01-27T10:05:07.572Z,25440
2016-01-27T10:05:21.822Z,25312
2016-01-27T10:05:35.728Z,25088
2016-01-27T10:05:49.619Z,24832
2016-01-27T10:06:02.887Z,24736
2016-01-27T10:06:15.965Z,24704
2016-01-27T10:06:29.794Z,24864
2016-01-27T10:06:44.106Z,25472
2016-01-27T10:06:58.061Z,25216
2016-01-27T10:07:12.014Z,24672
2016-01-27T10:07:26.233Z,24352
2016-01-27T10:07:40.171Z,24352
2016-01-27T10:07:53.928Z,23904
2016-01-27T10:08:07.741Z,23776
2016-01-27T10:08:22.428Z,23200
2016-01-27T10:08:36.710Z,22912
2016-01-27T10:08:50.491Z,22496
2016-01-27T10:09:04.509Z,22240
2016-01-27T10:09:18.446Z,22080
2016-01-27T10:10:00.919Z,21792
2016-01-27T10:10:14.669Z,21600
2016-01-27T10:10:28.872Z,21472
2016-01-27T10:10:42.716Z,21440
2016-01-27T10:10:56.671Z,21248
2016-01-27T10:11:10.655Z,21088
2016-01-27T10:11:24.421Z,20992
2016-01-27T10:11:38.203Z,21056
2016-01-27T10:11:52.628Z,21344
2016-01-27T10:12:06.519Z,21536
2016-01-27T10:12:20.081Z,20992
2016-01-27T10:12:34.362Z,20736
2016-01-27T10:12:48.128Z,20736
2016-01-27T10:13:01.818Z,20704
2016-01-27T10:13:29.787Z,20224
2016-01-27T10:13:43.553Z,20160
2016-01-27T10:13:57.758Z,20128
2016-01-27T10:14:11.836Z,20064
2016-01-27T10:14:26.586Z,19904
2016-01-27T10:14:41.774Z,19744
2016-01-27T10:14:55.870Z,19680
2016-01-27T10:15:38.262Z,19680
2016-01-27T10:15:52.280Z,19680
2016-01-27T10:16:06.421Z,19648
2016-01-27T10:16:20.765Z,19680
2016-01-27T10:16:34.874Z,19744
2016-01-27T10:16:48.796Z,19904
2016-01-27T10:17:03.080Z,20160
2016-01-27T10:17:17.471Z,20256
2016-01-27T10:17:31.143Z,20160
2016-01-27T10:17:45.408Z,20128
2016-01-27T10:17:59.520Z,20064
2016-01-27T10:18:41.832Z,20192
2016-01-27T10:18:55.992Z,20256
2016-01-27T10:19:10.429Z,20288
2016-01-27T10:19:24.445Z,20352
2016-01-27T10:19:38.382Z,20416
2016-01-27T10:20:06.541Z,20576
2016-01-27T10:20:20.510Z,20672
2016-01-27T10:20:48.510Z,20864
2016-01-27T10:21:02.483Z,20896
2016-01-27T10:21:16.686Z,20960
2016-01-27T10:21:44.702Z,21088
2016-01-27T10:21:58.782Z,21152
2016-01-27T10:22:12.969Z,21216
2016-01-27T10:22:26.516Z,21280
2016-01-27T10:22:40.252Z,21344
2016-01-27T10:22:54.207Z,21440
2016-01-27T10:23:08.285Z,21472
2016-01-27T10:23:22.285Z,21472
2016-01-27T10:23:36.238Z,21536
2016-01-27T10:23:50.222Z,21696
2016-01-27T10:24:03.272Z,21760
2016-01-27T10:24:17.100Z,21792
2016-01-27T10:24:31.053Z,21856
2016-01-27T10:24:45.444Z,21952
2016-01-27T10:24:59.338Z,22112
2016-01-27T10:25:13.572Z,22144
2016-01-27T10:25:27.137Z,22112
2016-01-27T10:26:12.046Z,22368
2016-01-27T10:26:26.127Z,22464
2016-01-27T10:26:40.111Z,22656
2016-01-27T10:26:53.879Z,22656
2016-01-27T10:27:07.769Z,22784
2016-01-27T10:27:21.941Z,22976
2016-01-27T10:27:36.207Z,23040
2016-01-27T10:27:50.301Z,23168
2016-01-27T10:28:07.335Z,23424
2016-01-27T10:28:24.522Z,23296
2016-01-27T10:28:38.866Z,23360
2016-01-27T10:28:53.275Z,23392
2016-01-27T10:29:07.088Z,23456
2016-01-27T10:29:21.510Z,23584
2016-01-27T10:29:35.463Z,23712
2016-01-27T10:29:49.307Z,23744
2016-01-27T10:30:34.373Z,24032
2016-01-27T10:30:48.623Z,24000
2016-01-27T10:31:02.907Z,24192
2016-01-27T10:31:16.782Z,24448
2016-01-27T10:31:30.845Z,24832
2016-01-27T10:31:44.751Z,25216
2016-01-27T10:31:58.895Z,25664
2016-01-27T10:32:12.707Z,26080
2016-01-27T10:32:26.629Z,26720
2016-01-27T10:32:40.598Z,27776
2016-01-27T10:32:54.460Z,28320
2016-01-27T10:33:08.835Z,28320
2016-01-27T10:33:22.601Z,28576
2016-01-27T10:33:36.788Z,28512
2016-01-27T10:33:50.588Z,28608
2016-01-27T10:34:04.653Z,28960
2016-01-27T10:34:21.559Z,28672
2016-01-27T10:34:35.762Z,28544
2016-01-27T10:34:49.825Z,28928
2016-01-27T10:35:03.686Z,29248
2016-01-27T10:35:17.905Z,28992
2016-01-27T10:35:46.233Z,28832
2016-01-27T10:36:00.377Z,28512
2016-01-27T10:36:14.331Z,28672
2016-01-27T10:36:28.424Z,28768
2016-01-27T10:36:42.612Z,29248
2016-01-27T10:36:56.364Z,30656
2016-01-27T10:37:10.426Z,32160
2016-01-27T10:37:23.929Z,33216
2016-01-27T10:37:37.929Z,37088
2016-01-27T10:37:52.226Z,39072
2016-01-27T10:38:06.104Z,39328
2016-01-27T10:38:20.323Z,35296
2016-01-27T10:38:37.104Z,34560
2016-01-27T10:38:51.089Z,32768
2016-01-27T10:39:06.153Z,33312
2016-01-27T10:39:20.169Z,36032
2016-01-27T10:39:33.966Z,39680
2016-01-27T10:39:48.059Z,42560
2016-01-27T10:40:01.859Z,41728
2016-01-27T10:40:16.344Z,37568
2016-01-27T10:40:30.281Z,40896
2016-01-27T10:40:44.265Z,43200
2016-01-27T10:40:58.456Z,49024
2016-01-27T10:41:15.613Z,51360
2016-01-27T10:41:30.238Z,55872
2016-01-27T10:41:47.097Z,56576
2016-01-27T10:42:01.334Z,58048
2016-01-27T10:42:14.928Z,57952
2016-01-27T10:42:28.818Z,56800
2016-01-27T10:42:42.724Z,55488
2016-01-27T10:42:57.399Z,53280
2016-01-27T10:43:11.806Z,49376
2016-01-27T10:43:25.993Z,48544
2016-01-27T10:43:40.540Z,46816
2016-01-27T10:43:54.621Z,44672
2016-01-27T10:44:08.527Z,44672
2016-01-27T10:44:22.605Z,44096
2016-01-27T10:44:36.605Z,43616
2016-01-27T10:44:50.873Z,43104
2016-01-27T10:45:04.829Z,42752
2016-01-27T10:45:19.032Z,45216
2016-01-27T10:45:33.220Z,49024
2016-01-27T10:45:47.235Z,49088
2016-01-27T10:46:01.269Z,50656
2016-01-27T10:46:15.519Z,52352
2016-01-27T10:46:29.644Z,53280
2016-01-27T10:46:43.847Z,51744
2016-01-27T10:46:57.929Z,52384
2016-01-27T10:47:11.991Z,48800
2016-01-27T10:47:26.132Z,50464
2016-01-27T10:47:39.882Z,49984
2016-01-27T10:47:54.384Z,50720
2016-01-27T10:48:08.837Z,51168
2016-01-27T10:48:22.837Z,50880
2016-01-27T10:48:36.729Z,50624
2016-01-27T10:48:50.807Z,49856
2016-01-27T10:49:04.841Z,48320
2016-01-27T10:49:19.185Z,44768
2016-01-27T10:49:33.060Z,45600
2016-01-27T10:50:01.203Z,48032
2016-01-27T10:50:29.109Z,46112
2016-01-27T10:50:43.156Z,47584
2016-01-27T10:50:57.189Z,48640
2016-01-27T10:51:12.111Z,45632
2016-01-27T10:51:25.908Z,47168
2016-01-27T10:51:39.830Z,51872
2016-01-27T10:51:54.724Z,55104
2016-01-27T10:52:08.802Z,54752
2016-01-27T10:52:36.755Z,50240
2016-01-27T10:53:20.242Z,44192
2016-01-27T10:53:34.164Z,42432
2016-01-27T10:53:48.164Z,41472
2016-01-27T10:54:30.168Z,37952
2016-01-27T10:54:59.029Z,37248
2016-01-27T10:55:13.701Z,36064
2016-01-27T10:55:27.795Z,33952
2016-01-27T10:55:42.263Z,33568
2016-01-27T10:55:56.159Z,34336
2016-01-27T10:56:10.596Z,35808
2016-01-27T10:56:24.675Z,38848
2016-01-27T10:56:39.300Z,36768
2016-01-27T10:56:53.234Z,34144
2016-01-27T10:57:07.080Z,33696
2016-01-27T10:57:21.283Z,32256
2016-01-27T10:57:35.658Z,30400
2016-01-27T10:57:49.486Z,29408
2016-01-27T10:58:03.926Z,29216
2016-01-27T10:58:17.832Z,28864
2016-01-27T10:58:31.879Z,28544
2016-01-27T10:58:45.957Z,28192
2016-01-27T10:59:00.101Z,27776
2016-01-27T10:59:14.116Z,27616
2016-01-27T10:59:28.257Z,27456
2016-01-27T10:59:42.133Z,27296
2016-01-27T10:59:55.964Z,27264
2016-01-27T11:00:09.995Z,27200
2016-01-27T11:00:23.808Z,27200
2016-01-27T11:00:37.636Z,27360
2016-01-27T11:00:51.636Z,27488
2016-01-27T11:01:06.373Z,27552
2016-01-27T11:01:20.467Z,27648
2016-01-27T11:01:48.545Z,27840
2016-01-27T11:02:02.875Z,28192
2016-01-27T11:02:16.860Z,28352
2016-01-27T11:02:31.141Z,28800
2016-01-27T11:02:45.735Z,29024
2016-01-27T11:02:59.800Z,29344
2016-01-27T11:03:14.489Z,29504
2016-01-27T11:03:31.535Z,29952
2016-01-27T11:03:59.898Z,30272
2016-01-27T11:04:13.726Z,30752
2016-01-27T11:04:27.710Z,30912
2016-01-27T11:04:41.757Z,32832
2016-01-27T11:05:10.150Z,35296
2016-01-27T11:05:23.103Z,38016
2016-01-27T11:05:37.494Z,39264
2016-01-27T11:05:51.369Z,41312
2016-01-27T11:06:05.637Z,44064
2016-01-27T11:06:19.950Z,46688
2016-01-27T11:06:34.262Z,49152
2016-01-27T11:06:48.356Z,52160
2016-01-27T11:07:06.453Z,50016
2016-01-27T11:07:20.750Z,51008
2016-01-27T11:07:34.921Z,50176
2016-01-27T11:07:49.500Z,54368
2016-01-27T11:08:03.798Z,54304
2016-01-27T11:08:18.080Z,53280
2016-01-27T11:08:31.877Z,55328
2016-01-27T11:08:45.830Z,60096
2016-01-27T11:09:13.818Z,57184
2016-01-27T11:09:28.177Z,56128
2016-01-27T11:09:42.584Z,56608
2016-01-27T11:09:56.821Z,52768
2016-01-27T11:10:11.415Z,51360
2016-01-27T11:10:25.680Z,52832
2016-01-27T11:10:39.494Z,49664
2016-01-27T11:10:53.916Z,50848
2016-01-27T11:11:07.880Z,50048
2016-01-27T11:11:22.115Z,50752
2016-01-27T11:11:36.396Z,52128
2016-01-27T11:11:50.349Z,56736
2016-01-27T11:12:04.341Z,57728
2016-01-27T11:12:18.482Z,54976
2016-01-27T11:12:33.185Z,56128
2016-01-27T11:12:47.497Z,57024
2016-01-27T11:13:01.380Z,55008
2016-01-27T11:13:15.505Z,53440
2016-01-27T11:13:29.755Z,53280
2016-01-27T11:13:43.755Z,52608
2016-01-27T11:14:00.622Z,53344
2016-01-27T11:14:14.997Z,54560
2016-01-27T11:14:28.856Z,56032
2016-01-27T11:14:42.856Z,54144
2016-01-27T11:14:56.912Z,57408
2016-01-27T11:15:11.084Z,59200
2016-01-27T11:15:25.068Z,61408
2016-01-27T11:15:39.115Z,59968
2016-01-27T11:15:53.084Z,57600
2016-01-27T11:16:10.270Z,56352
2016-01-27T11:16:24.223Z,56544
2016-01-27T11:16:38.067Z,58432
2016-01-27T11:16:51.489Z,59424
2016-01-27T11:17:05.683Z,60608
2016-01-27T11:17:19.590Z,60704
2016-01-27T11:17:33.730Z,61152
2016-01-27T11:17:47.496Z,62432
2016-01-27T11:18:01.385Z,62624
2016-01-27T11:18:15.651Z,62208
2016-01-27T11:18:29.573Z,63360
2016-01-27T11:18:43.760Z,63136
2016-01-27T11:18:57.744Z,63680
2016-01-27T11:19:12.025Z,61696
2016-01-27T11:19:25.884Z,61376
2016-01-27T11:20:08.352Z,56352
2016-01-27T11:20:22.368Z,55616
2016-01-27T11:20:36.368Z,55616
2016-01-27T11:20:50.258Z,54464
2016-01-27T11:21:04.463Z,53344
2016-01-27T11:21:18.494Z,50880
2016-01-27T11:21:38.634Z,50464
2016-01-27T11:21:52.572Z,52128
2016-01-27T11:22:06.542Z,51104
2016-01-27T11:22:20.526Z,49856
2016-01-27T11:22:34.370Z,49696
2016-01-27T11:22:48.307Z,47840
2016-01-27T11:23:02.996Z,46304
2016-01-27T11:23:16.902Z,46144
2016-01-27T11:23:31.011Z,46976
2016-01-27T11:23:44.843Z,46784
2016-01-27T11:23:59.469Z,47008
2016-01-27T11:24:13.437Z,47808
2016-01-27T11:24:27.234Z,47552
2016-01-27T11:24:44.000Z,47296
2016-01-27T11:24:57.845Z,46336
2016-01-27T11:25:12.079Z,44736
2016-01-27T11:25:40.182Z,45920
2016-01-27T11:25:54.136Z,45504
2016-01-27T11:26:08.575Z,44960
2016-01-27T11:26:22.372Z,46528
2016-01-27T11:26:36.403Z,47968
2016-01-27T11:26:50.231Z,48000
2016-01-27T11:27:04.233Z,48544
2016-01-27T11:27:18.328Z,49376
2016-01-27T11:27:32.187Z,52064
2016-01-27T11:27:46.109Z,52832
2016-01-27T11:28:00.769Z,53504
2016-01-27T11:28:14.722Z,55680
2016-01-27T11:28:29.378Z,55136
2016-01-27T11:28:43.425Z,55456
2016-01-27T11:29:00.255Z,57024
2016-01-27T11:29:13.411Z,57504
2016-01-27T11:29:27.036Z,55136
2016-01-27T11:29:41.224Z,53408
2016-01-27T11:29:55.161Z,52768
2016-01-27T11:30:09.023Z,50848
2016-01-27T11:30:22.882Z,49888
2016-01-27T11:30:37.491Z,49280
2016-01-27T11:30:51.476Z,49440
2016-01-27T11:31:05.822Z,49792
2016-01-27T11:31:20.119Z,48736
2016-01-27T11:31:34.072Z,50880
2016-01-27T11:31:48.166Z,54112
2016-01-27T11:32:02.263Z,55680
2016-01-27T11:32:16.044Z,54432
2016-01-27T11:32:30.153Z,53984
2016-01-27T11:32:44.107Z,51264
2016-01-27T11:32:57.249Z,52864
2016-01-27T11:33:14.499Z,56288
2016-01-27T11:33:28.484Z,57536
2016-01-27T11:33:42.468Z,61600
2016-01-27T11:33:56.298Z,60800
2016-01-27T11:34:16.204Z,62848
2016-01-27T11:34:30.657Z,63584
2016-01-27T11:34:44.551Z,62048
2016-01-27T11:34:58.507Z,61632
2016-01-27T11:35:12.367Z,61120
2016-01-27T11:35:26.632Z,59872
2016-01-27T11:35:40.413Z,57952
2016-01-27T11:35:54.429Z,54688
2016-01-27T11:36:08.416Z,51904
2016-01-27T11:36:21.588Z,49024
2016-01-27T11:36:35.635Z,45344
2016-01-27T11:36:49.979Z,45216
2016-01-27T11:37:04.293Z,44608
2016-01-27T11:37:18.293Z,43648
2016-01-27T11:37:49.543Z,42848
2016-01-27T11:38:03.358Z,42240
2016-01-27T11:38:16.858Z,42016
2016-01-27T11:38:31.094Z,41984
2016-01-27T11:38:45.047Z,41632
2016-01-27T11:38:59.270Z,41024
2016-01-27T11:39:13.239Z,40864
2016-01-27T11:39:30.286Z,39584
2016-01-27T11:39:44.223Z,39936
2016-01-27T11:39:58.460Z,40096
2016-01-27T11:40:12.506Z,39520
2016-01-27T11:40:26.570Z,39424
2016-01-27T11:40:40.679Z,39840
2016-01-27T11:41:12.307Z,40192
2016-01-27T11:41:26.104Z,40736
2016-01-27T11:41:40.370Z,41472
2016-01-27T11:41:54.167Z,41984
2016-01-27T11:42:08.140Z,41952
2016-01-27T11:42:21.937Z,42144
2016-01-27T11:42:35.719Z,41888
2016-01-27T11:42:49.640Z,42336
2016-01-27T11:43:03.409Z,42144
2016-01-27T11:43:17.409Z,42560
2016-01-27T11:43:31.347Z,42368
2016-01-27T11:43:45.393Z,42304
2016-01-27T11:43:59.334Z,42848
2016-01-27T11:44:16.303Z,43264
2016-01-27T11:44:30.365Z,43488
2016-01-27T11:44:44.256Z,43392
2016-01-27T11:44:57.430Z,43168
2016-01-27T11:45:11.523Z,43104
2016-01-27T11:45:25.930Z,44640
2016-01-27T11:45:43.148Z,45728
2016-01-27T11:46:11.388Z,46496
2016-01-27T11:46:25.169Z,46464
2016-01-27T11:46:39.403Z,46624
2016-01-27T11:46:53.638Z,46880
2016-01-27T11:47:07.703Z,46752
2016-01-27T11:47:21.969Z,47456
2016-01-27T11:47:36.313Z,47584
2016-01-27T11:47:50.578Z,47552
2016-01-27T11:48:04.861Z,48992
2016-01-27T11:48:18.518Z,49472
2016-01-27T11:48:32.330Z,49792
2016-01-27T11:48:46.486Z,50720
2016-01-27T11:49:00.255Z,50272
2016-01-27T11:49:14.521Z,50240
2016-01-27T11:49:28.286Z,49760
2016-01-27T11:49:42.428Z,50976
2016-01-27T11:49:56.662Z,51680
2016-01-27T11:50:10.712Z,53952
2016-01-27T11:50:26.009Z,51456
2016-01-27T11:50:39.962Z,50304
2016-01-27T11:50:53.884Z,50272
2016-01-27T11:51:10.996Z,50048
2016-01-27T11:51:24.981Z,46784
2016-01-27T11:51:38.965Z,46048
2016-01-27T11:51:52.887Z,50272
2016-01-27T11:52:06.953Z,47840
2016-01-27T11:52:20.515Z,48640
2016-01-27T11:52:34.249Z,50176
2016-01-27T11:52:51.484Z,50688
2016-01-27T11:53:05.643Z,51360
2016-01-27T11:53:18.832Z,51488
2016-01-27T11:53:33.394Z,51488
2016-01-27T11:53:47.253Z,51584
2016-01-27T11:54:01.380Z,52992
2016-01-27T11:54:15.818Z,51488
2016-01-27T11:54:30.349Z,48928
2016-01-27T11:54:43.709Z,48960
2016-01-27T11:54:58.274Z,49792
2016-01-27T11:55:12.680Z,50880
2016-01-27T11:55:26.368Z,52160
2016-01-27T11:55:40.696Z,53120
2016-01-27T11:55:54.940Z,52992
2016-01-27T11:56:09.084Z,52448
2016-01-27T11:56:22.490Z,48736
2016-01-27T11:56:36.631Z,44416
2016-01-27T11:56:50.693Z,47040
2016-01-27T11:57:05.509Z,47584
2016-01-27T11:57:19.477Z,48576
2016-01-27T11:58:01.949Z,54176
2016-01-27T11:58:16.121Z,56640
2016-01-27T11:58:30.308Z,58432
2016-01-27T11:58:44.230Z,59264
2016-01-27T11:58:58.296Z,59808
2016-01-27T11:59:12.593Z,60128
2016-01-27T11:59:27.390Z,60864
2016-01-27T11:59:41.749Z,59968
2016-01-27T11:59:55.296Z,60384
2016-01-27T12:00:09.220Z,60480
2016-01-27T12:00:23.360Z,60192
2016-01-27T12:00:36.298Z,60352
2016-01-27T12:00:50.220Z,60064
2016-01-27T12:01:03.941Z,58848
2016-01-27T12:01:18.316Z,58720
2016-01-27T12:01:32.973Z,57440